createdAt,value
2023-07-03T00:01:16.547Z,25.85
2023-07-03T00:03:48.053Z,25.83
2023-07-03T00:06:19.301Z,25.82
2023-07-03T00:08:50.692Z,25.81
2023-07-03T00:11:21.789Z,25.79
2023-07-03T00:13:53.043Z,25.78
2023-07-03T00:16:24.255Z,25.77
2023-07-03T00:18:55.313Z,25.76
2023-07-03T00:21:26.716Z,25.75
2023-07-03T00:23:58.070Z,25.73
2023-07-03T00:26:28.961Z,25.73
2023-07-03T00:29:01.326Z,25.72
2023-07-03T00:31:32.606Z,25.71
2023-07-03T00:34:04.009Z,25.70
2023-07-03T00:36:35.161Z,25.70
2023-07-03T00:39:07.281Z,25.69
2023-07-03T00:41:38.559Z,25.69
2023-07-03T00:44:14.246Z,25.69
2023-07-03T00:46:47.965Z,25.69
2023-07-03T00:49:19.802Z,25.68
2023-07-03T00:51:55.045Z,25.69
2023-07-03T00:54:26.630Z,25.69
2023-07-03T00:56:57.902Z,25.69
2023-07-03T00:59:29.172Z,25.69
2023-07-03T01:02:09.853Z,25.70
2023-07-03T01:04:47.580Z,25.70
2023-07-03T01:07:23.127Z,25.70
2023-07-03T01:09:58.485Z,25.70
2023-07-03T01:12:32.427Z,25.71
2023-07-03T01:15:08.093Z,25.71
2023-07-03T01:17:42.010Z,25.72
2023-07-03T01:20:18.326Z,25.71
2023-07-03T01:23:00.822Z,25.72
2023-07-03T01:25:33.289Z,25.72
2023-07-03T01:28:06.430Z,25.72
2023-07-03T01:30:40.632Z,25.71
2023-07-03T01:33:16.718Z,25.70
2023-07-03T01:35:50.920Z,25.69
2023-07-03T01:38:24.252Z,25.68
2023-07-03T01:40:57.428Z,25.67
2023-07-03T01:43:29.256Z,25.66
2023-07-03T01:46:00.250Z,25.65
2023-07-03T01:48:34.604Z,25.64
2023-07-03T01:51:09.026Z,25.62
2023-07-03T01:53:46.842Z,25.62
2023-07-03T01:56:25.772Z,25.61
2023-07-03T01:59:03.879Z,25.60
2023-07-03T02:01:43.438Z,25.59
2023-07-03T02:04:25.762Z,25.57
2023-07-03T02:06:58.953Z,25.57
2023-07-03T02:09:31.146Z,25.56
2023-07-03T02:12:02.968Z,25.55
2023-07-03T02:14:35.883Z,25.55
2023-07-03T02:17:08.578Z,25.55
2023-07-03T02:19:40.179Z,25.55
2023-07-03T02:22:11.714Z,25.55
2023-07-03T02:24:43.506Z,25.54
2023-07-03T02:27:15.056Z,25.54
2023-07-03T02:29:46.399Z,25.54
2023-07-03T02:32:17.959Z,25.54
2023-07-03T02:34:49.890Z,25.54
2023-07-03T02:37:21.774Z,25.53
2023-07-03T02:39:53.338Z,25.53
2023-07-03T02:42:24.946Z,25.53
2023-07-03T02:44:56.477Z,25.53
2023-07-03T02:47:27.839Z,25.52
2023-07-03T02:50:00.601Z,25.52
2023-07-03T02:52:31.789Z,25.52
2023-07-03T02:55:04.135Z,25.51
2023-07-03T02:57:35.834Z,25.52
2023-07-03T03:00:12.843Z,25.52
2023-07-03T03:02:46.237Z,25.51
2023-07-03T03:05:18.171Z,25.51
2023-07-03T03:07:49.311Z,25.51
2023-07-03T03:10:20.278Z,25.51
2023-07-03T03:12:52.049Z,25.50
2023-07-03T03:15:24.002Z,25.49
2023-07-03T03:17:55.404Z,25.49
2023-07-03T03:20:27.424Z,25.49
2023-07-03T03:22:58.724Z,25.48
2023-07-03T03:25:30.608Z,25.48
2023-07-03T03:28:01.971Z,25.49
2023-07-03T03:30:33.997Z,25.49
2023-07-03T03:33:05.222Z,25.49
2023-07-03T03:35:36.459Z,25.49
2023-07-03T03:38:08.299Z,25.48
2023-07-03T03:40:39.870Z,25.48
2023-07-03T03:43:11.160Z,25.48
2023-07-03T03:45:42.531Z,25.47
2023-07-03T03:48:14.149Z,25.46
2023-07-03T03:50:45.446Z,25.46
2023-07-03T03:53:17.115Z,25.46
2023-07-03T03:55:52.570Z,25.45
2023-07-03T03:58:24.981Z,25.45
2023-07-03T04:00:57.700Z,25.44
2023-07-03T04:03:29.015Z,25.45
2023-07-03T04:06:00.689Z,25.45
2023-07-03T04:08:32.277Z,25.45
2023-07-03T04:11:04.247Z,25.45
2023-07-03T04:13:35.595Z,25.47
2023-07-03T04:16:07.877Z,25.48
2023-07-03T04:18:39.640Z,25.49
2023-07-03T04:21:10.889Z,25.50
2023-07-03T04:23:41.951Z,25.52
2023-07-03T04:26:13.425Z,25.55
2023-07-03T04:28:45.231Z,25.70
2023-07-03T04:31:16.571Z,25.90
2023-07-03T04:33:48.214Z,26.08
2023-07-03T04:36:24.347Z,26.25
2023-07-03T04:38:58.718Z,26.40
2023-07-03T04:41:30.446Z,26.52
2023-07-03T04:44:02.493Z,26.62
2023-07-03T04:46:34.490Z,26.66
2023-07-03T04:49:06.703Z,26.69
2023-07-03T04:51:38.042Z,26.71
2023-07-03T04:54:09.306Z,26.71
2023-07-03T04:56:40.580Z,26.72
2023-07-03T04:59:11.835Z,26.71
2023-07-03T05:01:44.099Z,26.71
2023-07-03T05:04:15.942Z,26.67
2023-07-03T05:06:48.529Z,26.64
2023-07-03T05:09:19.693Z,26.64
2023-07-03T05:11:50.922Z,26.61
2023-07-03T05:14:22.298Z,26.59
2023-07-03T05:16:53.431Z,26.59
2023-07-03T05:19:25.279Z,26.59
2023-07-03T05:21:56.485Z,26.62
2023-07-03T05:24:27.784Z,26.64
2023-07-03T05:26:59.120Z,26.63
2023-07-03T05:29:30.084Z,26.62
2023-07-03T05:32:02.418Z,26.63
2023-07-03T05:34:35.130Z,26.61
2023-07-03T05:37:06.970Z,26.60
2023-07-03T05:39:38.913Z,26.61
2023-07-03T05:42:11.911Z,26.63
2023-07-03T05:44:42.903Z,26.66
2023-07-03T05:47:15.481Z,26.67
2023-07-03T05:49:48.839Z,26.68
2023-07-03T05:52:20.599Z,26.69
2023-07-03T05:54:51.680Z,26.71
2023-07-03T05:57:23.782Z,26.74
2023-07-03T05:59:55.873Z,26.75
2023-07-03T06:02:26.944Z,26.77
2023-07-03T06:04:58.181Z,26.78
2023-07-03T06:07:29.267Z,26.79
2023-07-03T06:10:00.239Z,26.84
2023-07-03T06:12:31.473Z,26.89
2023-07-03T06:15:03.488Z,26.98
2023-07-03T06:17:34.753Z,27.05
2023-07-03T06:20:06.740Z,27.11
2023-07-03T06:22:37.861Z,27.18
2023-07-03T06:25:09.881Z,27.23
2023-07-03T06:27:41.044Z,27.26
2023-07-03T06:30:13.708Z,27.29
2023-07-03T06:32:45.077Z,27.32
2023-07-03T06:35:18.804Z,27.32
2023-07-03T06:37:49.868Z,27.34
2023-07-03T06:40:21.119Z,27.35
2023-07-03T06:42:53.360Z,27.36
2023-07-03T06:45:25.103Z,27.36
2023-07-03T06:47:56.350Z,27.34
2023-07-03T06:50:27.356Z,27.33
2023-07-03T06:52:58.532Z,27.32
2023-07-03T06:55:29.570Z,27.34
2023-07-03T06:58:01.679Z,27.33
2023-07-03T07:00:33.020Z,27.30
2023-07-03T07:03:04.623Z,27.29
2023-07-03T07:05:36.027Z,27.33
2023-07-03T07:08:08.590Z,27.36
2023-07-03T07:10:44.805Z,27.42
2023-07-03T07:13:16.399Z,27.45
2023-07-03T07:15:47.967Z,27.46
2023-07-03T07:18:19.482Z,27.48
2023-07-03T07:20:50.730Z,27.48
2023-07-03T07:23:22.040Z,27.47
2023-07-03T07:25:58.842Z,27.47
2023-07-03T07:28:30.334Z,27.47
2023-07-03T07:31:01.912Z,27.44
2023-07-03T07:33:33.769Z,27.42
2023-07-03T07:36:05.568Z,27.41
2023-07-03T07:38:36.646Z,27.39
2023-07-03T07:41:07.887Z,27.35
2023-07-03T07:43:39.647Z,27.35
2023-07-03T07:46:11.246Z,27.35
2023-07-03T07:48:42.779Z,27.31
2023-07-03T07:51:15.917Z,27.26
2023-07-03T07:53:47.493Z,27.23
2023-07-03T07:56:19.164Z,27.21
2023-07-03T07:58:50.040Z,27.21
2023-07-03T08:01:21.923Z,27.20
2023-07-03T08:03:54.343Z,27.20
2023-07-03T08:06:25.598Z,27.19
2023-07-03T08:08:56.891Z,27.19
2023-07-03T08:11:30.316Z,27.16
2023-07-03T08:14:01.681Z,27.11
2023-07-03T08:16:32.989Z,27.06
2023-07-03T08:19:04.751Z,27.01
2023-07-03T08:21:35.795Z,26.96
2023-07-03T08:24:09.469Z,26.89
2023-07-03T08:26:42.921Z,26.85
2023-07-03T08:29:14.321Z,26.80
2023-07-03T08:31:45.884Z,26.77
2023-07-03T08:34:17.381Z,26.74
2023-07-03T08:39:23.374Z,26.68
2023-07-03T08:42:01.325Z,26.68
2023-07-03T08:44:33.082Z,26.67
2023-07-03T08:47:11.526Z,26.66
2023-07-03T08:49:47.178Z,26.66
2023-07-03T08:52:22.286Z,26.67
2023-07-03T08:54:55.085Z,26.67
2023-07-03T08:57:28.665Z,26.67
2023-07-03T08:59:59.718Z,26.64
2023-07-03T09:02:40.318Z,26.63
2023-07-03T09:05:25.893Z,26.61
2023-07-03T09:08:01.828Z,26.60
2023-07-03T09:10:39.630Z,26.58
2023-07-03T09:13:17.097Z,26.58
2023-07-03T09:15:56.456Z,26.58
2023-07-03T09:18:33.413Z,26.60
2023-07-03T09:21:04.968Z,26.63
2023-07-03T09:23:40.926Z,26.66
2023-07-03T09:26:19.341Z,26.67
2023-07-03T09:28:52.650Z,26.68
2023-07-03T09:31:23.872Z,26.71
2023-07-03T09:33:55.368Z,26.73
2023-07-03T09:36:32.840Z,26.76
2023-07-03T09:39:11.652Z,26.76
2023-07-03T09:41:43.812Z,26.77
2023-07-03T09:44:18.281Z,26.77
2023-07-03T09:46:50.521Z,26.78
2023-07-03T09:49:26.308Z,26.81
2023-07-03T09:51:58.922Z,26.84
2023-07-03T09:54:33.022Z,26.85
2023-07-03T09:57:08.974Z,26.87
2023-07-03T09:59:40.782Z,26.89
2023-07-03T10:07:22.394Z,26.93
2023-07-03T10:12:33.318Z,26.94
2023-07-03T10:15:07.940Z,26.92
2023-07-03T10:17:44.642Z,26.92
2023-07-03T10:20:22.546Z,26.92
2023-07-03T10:22:56.238Z,26.91
2023-07-03T10:25:34.932Z,26.91
2023-07-03T10:28:10.725Z,26.92
2023-07-03T10:30:43.777Z,26.92
2023-07-03T10:33:19.832Z,26.92
2023-07-03T10:35:53.857Z,26.91
2023-07-03T10:38:33.746Z,26.90
2023-07-03T10:41:11.187Z,26.91
2023-07-03T10:43:48.033Z,26.92
2023-07-03T10:46:26.341Z,26.91
2023-07-03T10:49:02.555Z,26.91
2023-07-03T10:51:44.969Z,26.92
2023-07-03T10:54:22.947Z,26.91
2023-07-03T10:57:00.025Z,26.91
2023-07-03T10:59:34.421Z,26.91
2023-07-03T11:02:31.749Z,26.93
2023-07-03T11:05:12.238Z,26.96
2023-07-03T11:07:49.716Z,26.98
2023-07-03T11:10:32.980Z,27.02
2023-07-03T11:13:08.804Z,27.04
2023-07-03T11:15:52.852Z,27.05
2023-07-03T11:24:18.693Z,27.13
2023-07-03T11:29:32.609Z,27.23
2023-07-03T11:32:06.907Z,27.27
2023-07-03T11:40:37.750Z,27.47
2023-07-03T11:43:31.350Z,27.56
2023-07-03T11:46:12.176Z,27.64
2023-07-03T11:48:50.564Z,27.72
2023-07-03T11:51:34.827Z,27.80
2023-07-03T11:54:19.766Z,27.88
2023-07-03T11:56:56.889Z,27.94
2023-07-03T11:59:31.484Z,28.00
2023-07-03T12:02:29.722Z,28.06
2023-07-03T12:05:01.196Z,28.02
2023-07-03T12:07:52.263Z,28.02
2023-07-03T12:10:56.914Z,28.06
2023-07-03T12:13:47.727Z,28.09
2023-07-03T12:16:21.441Z,28.12
2023-07-03T12:19:05.541Z,28.17
2023-07-03T12:21:53.597Z,28.26
2023-07-03T12:24:30.777Z,28.26
2023-07-03T12:27:04.989Z,28.27
2023-07-03T12:29:38.900Z,28.33
2023-07-03T12:32:12.119Z,28.39
2023-07-03T12:34:45.270Z,28.42
2023-07-03T12:37:22.065Z,28.43
2023-07-03T12:39:54.441Z,28.43
2023-07-03T12:42:29.452Z,28.37
2023-07-03T12:45:18.226Z,28.27
2023-07-03T12:48:01.830Z,28.15
2023-07-03T12:50:33.928Z,28.04
2023-07-03T12:53:06.338Z,27.94
2023-07-03T12:55:43.263Z,27.91
2023-07-03T12:58:15.445Z,27.91
2023-07-03T13:00:47.178Z,27.93
2023-07-03T13:03:20.064Z,27.96
2023-07-03T13:05:52.411Z,27.96
2023-07-03T13:08:24.366Z,27.98
2023-07-03T13:11:04.242Z,28.02
2023-07-03T13:13:35.600Z,28.07
2023-07-03T13:16:17.394Z,28.10
2023-07-03T13:19:02.541Z,28.10
2023-07-03T13:21:35.588Z,28.08
2023-07-03T13:24:13.480Z,28.02
2023-07-03T13:26:48.074Z,27.84
2023-07-03T13:29:26.623Z,27.70
2023-07-03T13:32:15.843Z,27.65
2023-07-03T13:34:59.517Z,27.68
2023-07-03T13:37:32.729Z,27.71
2023-07-03T13:40:03.917Z,27.73
2023-07-03T13:42:35.464Z,27.76
2023-07-03T13:45:09.618Z,27.78
2023-07-03T13:47:40.844Z,27.69
2023-07-03T13:50:13.607Z,27.56
2023-07-03T13:52:44.656Z,27.52
2023-07-03T13:55:15.950Z,27.51
2023-07-03T13:57:49.610Z,27.50
2023-07-03T14:00:22.157Z,27.48
2023-07-03T14:02:54.240Z,27.45
2023-07-03T14:05:26.150Z,27.41
2023-07-03T14:07:57.919Z,27.32
2023-07-03T14:10:29.620Z,27.28
2023-07-03T14:13:00.770Z,27.25
2023-07-03T14:15:33.197Z,27.23
2023-07-03T14:18:04.773Z,27.23
2023-07-03T14:20:36.318Z,27.16
2023-07-03T14:23:07.896Z,27.08
2023-07-03T14:25:40.385Z,26.96
2023-07-03T14:28:11.780Z,26.80
2023-07-03T14:30:43.294Z,26.70
2023-07-03T14:33:15.022Z,26.60
2023-07-03T14:35:46.878Z,26.55
2023-07-03T14:38:18.047Z,26.52
2023-07-03T14:40:49.430Z,26.48
2023-07-03T14:43:20.832Z,26.43
2023-07-03T14:45:52.310Z,26.37
2023-07-03T14:48:24.025Z,26.36
2023-07-03T14:50:55.187Z,26.40
2023-07-03T14:53:26.496Z,26.42
2023-07-03T14:56:01.954Z,26.38
2023-07-03T14:58:34.997Z,26.33
2023-07-03T15:01:07.061Z,26.29
2023-07-03T15:03:38.994Z,26.24
2023-07-03T15:06:11.414Z,26.17
2023-07-03T15:08:42.697Z,26.11
2023-07-03T15:11:18.887Z,26.11
2023-07-03T15:13:50.022Z,26.07
2023-07-03T15:16:21.450Z,26.02
2023-07-03T15:18:52.687Z,25.98
2023-07-03T15:21:24.011Z,25.95
2023-07-03T15:23:55.868Z,25.89
2023-07-03T15:26:27.087Z,25.85
2023-07-03T15:28:59.156Z,25.83
2023-07-03T15:31:30.515Z,25.80
2023-07-03T15:34:01.837Z,25.81
2023-07-03T15:36:33.603Z,25.81
2023-07-03T15:39:05.836Z,25.79
2023-07-03T15:41:37.115Z,25.75
2023-07-03T15:44:09.729Z,25.71
2023-07-03T15:46:41.621Z,25.74
2023-07-03T15:49:13.569Z,25.77
2023-07-03T15:51:45.377Z,25.80
2023-07-03T15:54:16.745Z,25.82
2023-07-03T15:56:49.425Z,25.82
2023-07-03T15:59:20.636Z,25.82
2023-07-03T16:01:52.256Z,25.78
2023-07-03T16:04:23.666Z,25.74
2023-07-03T16:06:54.660Z,25.76
2023-07-03T16:09:25.772Z,25.78
2023-07-03T16:11:56.864Z,25.76
2023-07-03T16:14:28.611Z,25.73
2023-07-03T16:17:02.928Z,25.73
2023-07-03T16:19:34.514Z,25.73
2023-07-03T16:22:06.925Z,25.71
2023-07-03T16:24:38.524Z,25.69
2023-07-03T16:27:09.967Z,25.69
2023-07-03T16:29:44.310Z,25.69
2023-07-03T16:32:15.899Z,25.65
2023-07-03T16:34:48.103Z,25.60
2023-07-03T16:37:19.456Z,25.57
2023-07-03T16:39:51.423Z,25.55
2023-07-03T16:42:23.166Z,25.53
2023-07-03T16:44:54.574Z,25.52
2023-07-03T16:47:26.121Z,25.49
2023-07-03T16:49:57.478Z,25.45
2023-07-03T16:52:28.964Z,25.42
2023-07-03T16:55:00.367Z,25.42
2023-07-03T16:57:31.659Z,25.45
2023-07-03T17:00:03.380Z,25.48
2023-07-03T17:02:34.782Z,25.55
2023-07-03T17:05:07.464Z,25.63
2023-07-03T17:07:38.775Z,25.70
2023-07-03T17:10:11.471Z,25.79
2023-07-03T17:12:42.780Z,25.83
2023-07-03T17:15:14.952Z,25.85
2023-07-03T17:17:46.165Z,25.89
2023-07-03T17:20:17.966Z,25.94
2023-07-03T17:22:49.088Z,25.97
2023-07-03T17:25:20.304Z,26.03
2023-07-03T17:27:51.588Z,26.08
2023-07-03T17:30:22.708Z,26.10
2023-07-03T17:32:53.734Z,26.08
2023-07-03T17:35:24.830Z,26.04
2023-07-03T17:37:55.917Z,25.99
2023-07-03T17:40:27.212Z,25.94
2023-07-03T17:42:58.400Z,25.90
2023-07-03T17:45:29.420Z,25.86
2023-07-03T17:48:00.420Z,25.81
2023-07-03T17:50:31.812Z,25.79
2023-07-03T17:53:02.942Z,25.76
2023-07-03T17:55:35.534Z,25.74
2023-07-03T17:58:06.602Z,25.75
2023-07-03T18:00:37.637Z,25.74
2023-07-03T18:03:09.035Z,25.71
2023-07-03T18:05:40.385Z,25.67
2023-07-03T18:08:11.685Z,25.68
2023-07-03T18:10:42.601Z,25.66
2023-07-03T18:13:13.976Z,25.66
2023-07-03T18:15:49.623Z,25.64
2023-07-03T18:18:22.096Z,25.62
2023-07-03T18:20:53.136Z,25.61
2023-07-03T18:23:24.289Z,25.61
2023-07-03T18:25:56.311Z,25.61
2023-07-03T18:28:27.454Z,25.60
2023-07-03T18:31:03.383Z,25.57
2023-07-03T18:33:35.571Z,25.55
2023-07-03T18:36:07.277Z,25.54
2023-07-03T18:38:38.768Z,25.55
2023-07-03T18:41:10.103Z,25.54
2023-07-03T18:43:41.181Z,25.54
2023-07-03T18:46:12.587Z,25.54
2023-07-03T18:48:44.272Z,25.52
2023-07-03T18:51:19.488Z,25.50
2023-07-03T18:53:50.860Z,25.49
2023-07-03T18:56:22.741Z,25.49
2023-07-03T18:58:54.063Z,25.49
2023-07-03T19:01:25.479Z,25.50
2023-07-03T19:03:56.853Z,25.53
2023-07-03T19:06:28.067Z,25.53
2023-07-03T19:08:59.417Z,25.53
2023-07-03T19:11:30.824Z,25.48
2023-07-03T19:14:02.220Z,25.43
2023-07-03T19:16:33.868Z,25.44
2023-07-03T19:19:05.483Z,25.49
2023-07-03T19:21:37.150Z,25.54
2023-07-03T19:24:09.016Z,25.62
2023-07-03T19:26:40.263Z,25.72
2023-07-03T19:29:11.545Z,25.79
2023-07-03T19:31:42.882Z,25.85
2023-07-03T19:34:14.293Z,25.90
2023-07-03T19:36:45.520Z,25.92
2023-07-03T19:39:16.567Z,25.94
2023-07-03T19:41:48.061Z,25.92
2023-07-03T19:44:19.096Z,25.90
2023-07-03T19:46:50.005Z,25.89
2023-07-03T19:49:21.401Z,26.00
2023-07-03T19:51:52.631Z,26.07
2023-07-03T19:54:24.437Z,26.14
2023-07-03T19:56:56.009Z,26.23
2023-07-03T19:59:29.862Z,26.28
2023-07-03T20:02:01.295Z,26.28
2023-07-03T20:04:32.955Z,26.27
2023-07-03T20:07:05.098Z,26.26
2023-07-03T20:09:36.136Z,26.27
2023-07-03T20:12:09.013Z,26.28
2023-07-03T20:14:40.955Z,26.29
2023-07-03T20:17:12.541Z,26.29
2023-07-03T20:19:43.825Z,26.30
2023-07-03T20:22:15.002Z,26.31
2023-07-03T20:24:46.408Z,26.33
2023-07-03T20:27:17.918Z,26.32
2023-07-03T20:29:53.147Z,26.34
2023-07-03T20:32:25.264Z,26.33
2023-07-03T20:34:57.313Z,26.32
2023-07-03T20:37:28.568Z,26.33
2023-07-03T20:40:02.343Z,26.37
2023-07-03T20:42:33.670Z,26.39
2023-07-03T20:45:05.277Z,26.41
2023-07-03T20:47:36.587Z,26.42
2023-07-03T20:50:11.500Z,26.45
2023-07-03T20:52:42.966Z,26.47
2023-07-03T20:55:24.094Z,26.48
2023-07-03T20:57:55.419Z,26.50
2023-07-03T21:00:27.001Z,26.51
2023-07-03T21:02:58.304Z,26.56
2023-07-03T21:05:29.834Z,26.58
2023-07-03T21:08:00.984Z,26.61
2023-07-03T21:10:32.139Z,26.71
2023-07-03T21:13:03.673Z,26.78
2023-07-03T21:15:36.316Z,26.81
2023-07-03T21:18:07.683Z,26.81
2023-07-03T21:20:38.719Z,26.78
2023-07-03T21:23:09.867Z,26.76
2023-07-03T21:25:41.101Z,26.75
2023-07-03T21:28:13.201Z,26.74
2023-07-03T21:30:46.142Z,26.71
2023-07-03T21:33:17.932Z,26.73
2023-07-03T21:35:49.411Z,26.74
2023-07-03T21:38:21.108Z,26.73
2023-07-03T21:40:57.769Z,26.72
2023-07-03T21:43:31.135Z,26.72
2023-07-03T21:46:07.262Z,26.75
2023-07-03T21:48:40.271Z,26.77
2023-07-03T21:51:13.093Z,26.81
2023-07-03T21:53:44.793Z,26.84
2023-07-03T21:56:17.625Z,26.86
2023-07-03T21:58:51.771Z,26.84
2023-07-03T22:01:26.988Z,26.78
2023-07-03T22:03:59.313Z,26.71
2023-07-03T22:06:31.220Z,26.65
2023-07-03T22:09:02.285Z,26.58
2023-07-03T22:11:33.877Z,26.52
2023-07-03T22:14:05.393Z,26.49
2023-07-03T22:16:37.017Z,26.45
2023-07-03T22:19:09.012Z,26.42
2023-07-03T22:21:40.046Z,26.39
2023-07-03T22:24:11.711Z,26.36
2023-07-03T22:26:42.939Z,26.33
2023-07-03T22:29:14.329Z,26.31
2023-07-03T22:31:45.865Z,26.28
2023-07-03T22:34:17.157Z,26.25
2023-07-03T22:36:48.699Z,26.23
2023-07-03T22:39:19.865Z,26.20
2023-07-03T22:41:50.814Z,26.18
2023-07-03T22:44:22.001Z,26.15
2023-07-03T22:46:54.858Z,26.14
2023-07-03T22:49:26.033Z,26.12
2023-07-03T22:51:57.335Z,26.11
2023-07-03T22:54:28.819Z,26.11
2023-07-03T22:57:00.019Z,26.10
2023-07-03T22:59:31.103Z,26.09
2023-07-03T23:02:02.172Z,26.08
2023-07-03T23:04:36.353Z,26.06
2023-07-03T23:07:08.496Z,26.06
2023-07-03T23:09:41.961Z,26.05
2023-07-03T23:12:15.198Z,26.05
2023-07-03T23:14:49.580Z,26.04
2023-07-03T23:17:28.774Z,26.03
2023-07-03T23:19:59.914Z,26.01
2023-07-03T23:22:31.832Z,26.00
2023-07-03T23:25:03.233Z,25.99
2023-07-03T23:27:34.963Z,25.98
2023-07-03T23:30:10.953Z,25.97
2023-07-03T23:32:41.914Z,25.98
2023-07-03T23:35:13.643Z,25.98
2023-07-03T23:37:44.905Z,25.97
2023-07-03T23:40:16.489Z,25.97
2023-07-03T23:42:48.186Z,25.96
2023-07-03T23:45:20.951Z,25.96
2023-07-03T23:47:53.108Z,25.95
2023-07-03T23:50:24.485Z,25.94
2023-07-03T23:52:55.818Z,25.93
2023-07-03T23:55:27.113Z,25.92
2023-07-03T23:57:58.572Z,25.91
